createdAt,value
2019-04-29T00:01:08.898Z,7.80
2019-04-29T00:03:39.289Z,6.23
2019-04-29T00:06:10.076Z,9.07
2019-04-29T00:08:40.809Z,7.60
2019-04-29T00:11:13.984Z,8.40
2019-04-29T00:13:44.476Z,8.10
2019-04-29T00:16:28.371Z,6.53
2019-04-29T00:19:21.632Z,6.97
2019-04-29T00:21:57.776Z,6.07
2019-04-29T00:24:28.042Z,6.40
2019-04-29T00:27:00.397Z,6.37
2019-04-29T00:29:30.793Z,5.43
2019-04-29T00:32:01.054Z,6.40
2019-04-29T00:34:31.401Z,7.03
2019-04-29T00:37:20.846Z,7.00
2019-04-29T00:40:20.906Z,7.73
2019-04-29T00:42:57.832Z,7.27
2019-04-29T00:45:28.154Z,6.73
2019-04-29T00:48:01.447Z,5.93
2019-04-29T00:50:31.744Z,6.90
2019-04-29T00:53:02.107Z,5.67
2019-04-29T00:55:34.918Z,10.13
2019-04-29T00:58:05.336Z,9.67
2019-04-29T01:00:38.956Z,7.80
2019-04-29T01:03:09.283Z,10.60
2019-04-29T01:05:39.569Z,7.50
2019-04-29T01:08:10.584Z,9.87
2019-04-29T01:10:40.803Z,9.57
2019-04-29T01:13:11.000Z,8.83
2019-04-29T01:15:41.525Z,10.23
2019-04-29T01:18:11.965Z,8.87
2019-04-29T01:20:42.318Z,9.63
2019-04-29T01:23:12.882Z,9.57
2019-04-29T01:25:44.778Z,7.77
2019-04-29T01:28:23.888Z,11.80
2019-04-29T01:31:18.190Z,10.17
2019-04-29T01:33:50.056Z,10.37
2019-04-29T01:36:45.141Z,12.40
2019-04-29T01:39:16.388Z,13.13
2019-04-29T01:42:00.506Z,10.03
2019-04-29T01:44:32.668Z,9.03
2019-04-29T01:47:02.958Z,9.97
2019-04-29T01:49:33.399Z,12.50
2019-04-29T01:52:03.832Z,11.43
2019-04-29T01:54:34.132Z,12.80
2019-04-29T01:57:05.052Z,13.40
2019-04-29T01:59:35.400Z,12.90
2019-04-29T02:02:07.833Z,10.87
2019-04-29T02:04:38.234Z,11.10
2019-04-29T02:07:09.090Z,11.83
2019-04-29T02:09:47.610Z,11.77
2019-04-29T02:12:20.040Z,9.67
2019-04-29T02:14:50.604Z,10.27
2019-04-29T02:17:21.069Z,15.03
2019-04-29T02:19:51.460Z,11.07
2019-04-29T02:22:43.546Z,15.70
2019-04-29T02:25:18.836Z,11.57
2019-04-29T02:27:49.195Z,9.83
2019-04-29T02:30:37.239Z,13.70
2019-04-29T02:33:07.647Z,11.23
2019-04-29T02:35:37.867Z,12.67
2019-04-29T02:38:10.852Z,10.97
2019-04-29T02:40:51.645Z,10.70
2019-04-29T02:43:25.088Z,9.80
2019-04-29T02:45:55.430Z,12.10
2019-04-29T02:48:29.975Z,12.60
2019-04-29T02:50:57.637Z,13.90
2019-04-29T02:53:27.891Z,13.07
2019-04-29T02:56:00.058Z,12.67
2019-04-29T02:58:49.477Z,14.10
2019-04-29T03:01:51.406Z,12.73
2019-04-29T03:04:25.167Z,12.77
2019-04-29T03:06:55.582Z,12.27
2019-04-29T03:09:26.157Z,10.53
2019-04-29T03:12:01.645Z,9.40
2019-04-29T03:14:31.168Z,8.90
2019-04-29T03:17:02.640Z,7.87
2019-04-29T03:19:36.778Z,11.37
2019-04-29T03:22:07.895Z,9.53
2019-04-29T03:24:38.137Z,8.80
2019-04-29T03:27:08.267Z,11.33
2019-04-29T03:29:41.058Z,8.83
2019-04-29T03:32:12.289Z,7.83
2019-04-29T03:34:42.982Z,7.27
2019-04-29T03:37:13.257Z,9.77
2019-04-29T03:39:43.424Z,8.33
2019-04-29T03:42:13.860Z,8.33
2019-04-29T03:44:44.084Z,12.97
2019-04-29T03:47:18.383Z,8.03
2019-04-29T03:49:46.209Z,8.67
2019-04-29T03:52:16.461Z,8.23
2019-04-29T03:54:46.720Z,9.80
2019-04-29T03:57:18.084Z,7.60
2019-04-29T03:59:48.437Z,6.80
2019-04-29T04:02:39.964Z,11.37
2019-04-29T04:05:45.035Z,12.67
2019-04-29T04:08:18.753Z,10.10
2019-04-29T04:10:49.301Z,7.57
2019-04-29T04:13:20.051Z,5.67
2019-04-29T04:15:50.371Z,7.83
2019-04-29T04:18:26.334Z,5.00
2019-04-29T04:20:56.645Z,7.73
2019-04-29T04:23:28.426Z,3.50
2019-04-29T04:25:58.590Z,3.37
2019-04-29T04:28:28.819Z,4.13
2019-04-29T04:30:59.177Z,4.13
2019-04-29T04:33:29.368Z,4.47
2019-04-29T04:35:59.580Z,4.70
2019-04-29T04:38:29.749Z,4.80
2019-04-29T04:41:06.834Z,4.23
2019-04-29T04:43:37.375Z,4.97
2019-04-29T04:46:07.576Z,5.50
2019-04-29T04:48:37.961Z,5.17
2019-04-29T04:51:08.188Z,5.77
2019-04-29T04:53:38.437Z,3.80
2019-04-29T04:56:08.670Z,3.50
2019-04-29T04:58:38.930Z,4.50
2019-04-29T05:01:09.301Z,5.10
2019-04-29T05:03:39.852Z,4.43
2019-04-29T05:06:10.190Z,4.33
2019-04-29T05:08:40.458Z,5.70
2019-04-29T05:11:10.758Z,6.53
2019-04-29T05:13:41.084Z,8.73
2019-04-29T05:16:11.489Z,4.37
2019-04-29T05:18:44.946Z,6.40
2019-04-29T05:21:15.264Z,5.20
2019-04-29T05:23:51.143Z,4.03
2019-04-29T05:26:18.909Z,4.17
2019-04-29T05:28:49.638Z,3.83
2019-04-29T05:31:20.067Z,3.40
2019-04-29T05:33:53.183Z,4.33
2019-04-29T05:36:49.642Z,7.53
2019-04-29T05:39:34.451Z,7.53
2019-04-29T05:42:07.756Z,7.97
2019-04-29T05:44:55.912Z,10.23
2019-04-29T05:47:34.365Z,10.77
2019-04-29T05:50:41.939Z,14.57
2019-04-29T05:53:24.728Z,15.17
2019-04-29T05:55:55.312Z,17.53
2019-04-29T05:58:32.799Z,19.13
2019-04-29T06:01:16.694Z,12.27
2019-04-29T06:03:53.631Z,18.40
2019-04-29T06:06:25.118Z,16.97
2019-04-29T06:08:58.323Z,18.43
2019-04-29T06:11:29.264Z,16.47
2019-04-29T06:13:59.500Z,16.00
2019-04-29T06:16:29.679Z,15.77
2019-04-29T06:19:01.616Z,15.27
2019-04-29T06:21:31.571Z,15.40
2019-04-29T06:24:04.166Z,13.27
2019-04-29T06:26:33.574Z,12.27
2019-04-29T06:29:06.069Z,11.77
2019-04-29T06:31:36.512Z,12.10
2019-04-29T06:34:06.718Z,12.03
2019-04-29T06:36:36.987Z,11.33
2019-04-29T06:39:08.254Z,11.00
2019-04-29T06:41:40.733Z,10.77
2019-04-29T06:44:15.930Z,13.27
2019-04-29T06:46:42.094Z,11.50
2019-04-29T06:49:13.362Z,11.47
2019-04-29T06:51:43.503Z,11.57
2019-04-29T06:54:13.657Z,9.57
2019-04-29T06:56:43.829Z,12.73
2019-04-29T06:59:14.096Z,13.57
2019-04-29T07:01:45.357Z,12.80
2019-04-29T07:04:15.480Z,7.77
2019-04-29T07:06:56.798Z,10.53
2019-04-29T07:09:17.410Z,10.47
2019-04-29T07:11:47.479Z,10.33
2019-04-29T07:14:17.635Z,11.43
2019-04-29T07:16:47.748Z,11.80
2019-04-29T07:19:17.833Z,10.80
2019-04-29T07:21:51.481Z,6.27
2019-04-29T07:24:20.407Z,5.77
2019-04-29T07:26:50.700Z,4.57
2019-04-29T07:29:21.253Z,5.23
2019-04-29T07:31:51.739Z,5.47
2019-04-29T07:34:22.865Z,5.93
2019-04-29T07:36:53.171Z,6.73
2019-04-29T07:39:26.700Z,7.67
2019-04-29T07:41:56.554Z,5.37
2019-04-29T07:44:42.682Z,5.70
2019-04-29T07:47:02.289Z,6.23
2019-04-29T07:49:32.068Z,4.30
2019-04-29T07:52:02.165Z,4.97
2019-04-29T07:54:32.235Z,6.40
2019-04-29T07:57:02.391Z,8.17
2019-04-29T07:59:33.802Z,6.07
2019-04-29T08:02:04.512Z,5.47
2019-04-29T08:04:36.011Z,5.20
2019-04-29T08:07:08.927Z,5.77
2019-04-29T08:09:39.833Z,5.83
2019-04-29T08:12:12.950Z,5.37
2019-04-29T08:14:44.775Z,4.70
2019-04-29T08:17:14.799Z,9.00
2019-04-29T08:19:44.965Z,4.90
2019-04-29T08:22:18.379Z,3.80
2019-04-29T08:24:50.381Z,4.67
2019-04-29T08:27:20.556Z,3.47
2019-04-29T08:29:50.723Z,4.83
2019-04-29T08:32:21.060Z,4.10
2019-04-29T08:34:53.719Z,4.27
2019-04-29T08:37:25.032Z,3.60
2019-04-29T08:40:14.936Z,3.40
2019-04-29T08:42:30.955Z,7.10
2019-04-29T08:45:18.933Z,1.80
2019-04-29T08:47:49.152Z,4.13
2019-04-29T08:50:19.399Z,1.57
2019-04-29T08:52:49.546Z,2.93
2019-04-29T08:55:19.738Z,3.97
2019-04-29T08:57:49.916Z,2.83
2019-04-29T09:00:20.880Z,2.60
2019-04-29T09:02:51.000Z,3.87
2019-04-29T09:05:21.118Z,2.47
2019-04-29T09:07:52.587Z,3.07
2019-04-29T09:10:23.156Z,3.10
2019-04-29T09:12:53.286Z,2.97
2019-04-29T09:15:25.082Z,3.40
2019-04-29T09:17:55.340Z,3.47
2019-04-29T09:20:25.464Z,3.83
2019-04-29T09:23:00.307Z,5.77
2019-04-29T09:26:02.757Z,9.63
2019-04-29T09:28:32.171Z,3.60
2019-04-29T09:31:02.449Z,5.10
2019-04-29T09:33:32.621Z,4.00
2019-04-29T09:36:04.419Z,5.17
2019-04-29T09:38:36.816Z,5.20
2019-04-29T09:41:14.430Z,5.67
2019-04-29T09:44:12.524Z,9.07
2019-04-29T09:46:42.861Z,6.27
2019-04-29T09:49:13.013Z,6.97
2019-04-29T09:51:43.191Z,5.03
2019-04-29T09:54:14.499Z,6.33
2019-04-29T09:56:45.101Z,7.80
2019-04-29T09:59:29.628Z,7.77
2019-04-29T10:02:26.242Z,6.23
2019-04-29T10:05:14.978Z,7.93
2019-04-29T10:07:45.187Z,8.40
2019-04-29T10:10:15.490Z,8.03
2019-04-29T10:12:45.716Z,7.63
2019-04-29T10:15:17.618Z,6.43
2019-04-29T10:17:59.954Z,5.73
2019-04-29T10:20:40.140Z,5.43
2019-04-29T10:23:10.316Z,5.17
2019-04-29T10:25:41.219Z,6.43
2019-04-29T10:28:11.480Z,5.87
2019-04-29T10:30:41.740Z,4.60
2019-04-29T10:33:12.945Z,4.93
2019-04-29T10:35:45.131Z,4.77
2019-04-29T10:38:15.676Z,7.90
2019-04-29T10:41:00.713Z,4.53
2019-04-29T10:43:49.350Z,4.30
2019-04-29T10:46:25.392Z,6.07
2019-04-29T10:49:11.775Z,3.83
2019-04-29T10:51:41.982Z,5.60
2019-04-29T10:54:14.333Z,4.43
2019-04-29T10:56:44.704Z,10.53
2019-04-29T10:59:14.916Z,6.73
2019-04-29T11:02:29.288Z,3.67
2019-04-29T11:05:32.151Z,6.10
2019-04-29T11:08:11.803Z,3.70
2019-04-29T11:10:42.148Z,5.20
2019-04-29T11:13:13.380Z,6.83
2019-04-29T11:15:45.012Z,8.63
2019-04-29T11:18:18.152Z,5.80
2019-04-29T11:20:48.932Z,7.27
2019-04-29T11:23:40.960Z,5.07
2019-04-29T11:26:31.286Z,4.60
2019-04-29T11:29:01.471Z,4.00
2019-04-29T11:31:32.368Z,6.80
2019-04-29T11:34:11.564Z,6.80
2019-04-29T11:36:44.198Z,7.23
2019-04-29T11:39:16.702Z,7.07
2019-04-29T11:41:50.035Z,6.27
2019-04-29T11:44:26.400Z,4.47
2019-04-29T11:46:54.057Z,6.20
2019-04-29T11:49:33.303Z,7.43
2019-04-29T11:52:09.762Z,7.23
2019-04-29T11:54:36.003Z,7.37
2019-04-29T11:57:08.978Z,6.13
2019-04-29T12:00:01.491Z,6.83
2019-04-29T12:02:48.643Z,7.33
2019-04-29T12:05:44.853Z,8.33
2019-04-29T12:08:16.970Z,5.13
2019-04-29T12:10:52.056Z,6.80
2019-04-29T12:13:28.402Z,6.87
2019-04-29T12:16:04.813Z,9.07
2019-04-29T12:18:39.701Z,10.70
2019-04-29T12:21:29.758Z,7.77
2019-04-29T12:24:01.494Z,6.67
2019-04-29T12:26:35.622Z,11.37
2019-04-29T12:29:04.448Z,10.47
2019-04-29T12:31:59.756Z,8.47
2019-04-29T12:34:55.333Z,13.07
2019-04-29T12:37:43.938Z,7.73
2019-04-29T12:40:49.774Z,8.57
2019-04-29T12:43:32.228Z,9.20
2019-04-29T12:46:05.936Z,10.30
2019-04-29T12:48:39.297Z,15.80
2019-04-29T12:51:10.047Z,31.23
2019-04-29T12:53:44.797Z,8.23
2019-04-29T12:56:17.898Z,8.47
2019-04-29T12:58:50.575Z,9.70
2019-04-29T13:01:50.348Z,7.47
2019-04-29T13:04:10.731Z,10.10
2019-04-29T13:07:03.253Z,8.67
2019-04-29T13:09:38.845Z,7.73
2019-04-29T13:12:19.357Z,7.33
2019-04-29T13:15:08.080Z,8.73
2019-04-29T13:18:02.674Z,7.73
2019-04-29T13:20:25.279Z,8.87
2019-04-29T13:23:16.923Z,22.10
2019-04-29T13:25:35.946Z,11.30
2019-04-29T13:28:10.184Z,12.87
2019-04-29T13:30:43.094Z,10.83
2019-04-29T13:33:16.607Z,13.27
2019-04-29T13:35:48.428Z,11.30
2019-04-29T13:38:15.354Z,7.57
2019-04-29T13:40:45.566Z,8.93
2019-04-29T13:43:20.693Z,7.90
2019-04-29T13:45:56.040Z,8.33
2019-04-29T13:48:55.343Z,8.23
2019-04-29T13:51:34.733Z,7.17
2019-04-29T13:53:59.831Z,7.93
2019-04-29T13:56:54.231Z,7.13
2019-04-29T13:59:10.561Z,7.90
2019-04-29T14:01:59.873Z,9.73
2019-04-29T14:04:25.094Z,7.27
2019-04-29T14:06:59.120Z,9.47
2019-04-29T14:09:35.049Z,9.87
2019-04-29T14:12:47.023Z,8.77
2019-04-29T14:14:48.296Z,6.83
2019-04-29T14:17:26.475Z,7.50
2019-04-29T14:19:57.184Z,8.20
2019-04-29T14:22:27.949Z,8.67
2019-04-29T14:25:03.479Z,7.67
2019-04-29T14:27:37.302Z,7.23
2019-04-29T14:30:13.989Z,6.87
2019-04-29T14:32:53.358Z,7.80
2019-04-29T14:35:51.874Z,8.17
2019-04-29T14:39:28.367Z,7.70
2019-04-29T14:43:25.999Z,8.90
2019-04-29T14:46:16.514Z,8.97
2019-04-29T14:49:06.270Z,14.33
2019-04-29T14:51:56.569Z,9.27
2019-04-29T14:54:30.170Z,8.67
2019-04-29T14:57:03.523Z,10.70
2019-04-29T14:59:34.991Z,9.37
2019-04-29T15:02:16.828Z,9.57
2019-04-29T15:04:46.058Z,15.20
2019-04-29T15:07:16.997Z,12.93
2019-04-29T15:10:05.282Z,16.80
2019-04-29T15:13:11.890Z,13.27
2019-04-29T15:15:41.259Z,23.20
2019-04-29T15:18:49.671Z,11.17
2019-04-29T15:21:42.925Z,12.33
2019-04-29T15:24:08.405Z,17.23
2019-04-29T15:26:38.594Z,10.97
2019-04-29T15:29:08.897Z,13.70
2019-04-29T15:31:42.490Z,12.27
2019-04-29T15:34:14.409Z,10.97
2019-04-29T15:36:42.924Z,12.13
2019-04-29T15:39:13.379Z,10.53
2019-04-29T15:41:44.103Z,11.10
2019-04-29T15:44:20.274Z,13.47
2019-04-29T15:46:47.206Z,11.47
2019-04-29T15:49:20.077Z,12.17
2019-04-29T15:51:50.992Z,10.73
2019-04-29T15:54:21.339Z,12.63
2019-04-29T15:56:52.798Z,11.80
2019-04-29T15:59:25.781Z,9.57
2019-04-29T16:01:58.892Z,10.73
2019-04-29T16:04:39.576Z,9.43
2019-04-29T16:07:37.810Z,10.67
2019-04-29T16:10:42.475Z,12.50
2019-04-29T16:13:13.026Z,10.70
2019-04-29T16:15:44.726Z,11.00
2019-04-29T16:18:15.109Z,8.07
2019-04-29T16:20:45.436Z,8.07
2019-04-29T16:23:15.562Z,9.50
2019-04-29T16:25:52.449Z,9.23
2019-04-29T16:28:24.120Z,9.00
2019-04-29T16:30:50.656Z,11.77
2019-04-29T16:33:20.845Z,8.90
2019-04-29T16:35:50.946Z,7.83
2019-04-29T16:38:21.483Z,8.67
2019-04-29T16:40:59.378Z,7.47
2019-04-29T16:43:38.255Z,7.27
2019-04-29T16:46:17.296Z,8.33
2019-04-29T16:48:47.497Z,8.20
2019-04-29T16:51:17.588Z,8.00
2019-04-29T16:53:47.866Z,5.80
2019-04-29T16:56:18.079Z,4.10
2019-04-29T16:58:48.313Z,5.67
2019-04-29T17:01:18.609Z,4.20
2019-04-29T17:03:48.836Z,3.83
2019-04-29T17:06:19.338Z,6.43
2019-04-29T17:09:11.472Z,4.07
2019-04-29T17:11:43.550Z,3.50
2019-04-29T17:14:13.784Z,3.57
2019-04-29T17:16:44.034Z,3.73
2019-04-29T17:19:14.343Z,4.50
2019-04-29T17:21:44.455Z,4.97
2019-04-29T17:24:14.626Z,6.30
2019-04-29T17:27:06.855Z,5.13
2019-04-29T17:30:03.345Z,6.25
2019-04-29T17:32:55.765Z,8.87
2019-04-29T17:35:29.790Z,9.67
2019-04-29T17:38:07.585Z,8.70
2019-04-29T17:40:50.595Z,8.27
2019-04-29T17:43:29.750Z,9.90
2019-04-29T17:46:19.663Z,15.00
2019-04-29T17:49:04.224Z,10.87
2019-04-29T17:51:36.175Z,17.17
2019-04-29T17:54:08.317Z,8.27
2019-04-29T17:57:15.342Z,7.83
2019-04-29T17:59:48.571Z,6.23
2019-04-29T18:02:42.266Z,6.73
2019-04-29T18:37:43.160Z,9.97
2019-04-29T18:40:13.607Z,8.87
2019-04-29T18:42:48.463Z,10.53
2019-04-29T18:45:16.235Z,11.53
2019-04-29T18:47:46.476Z,10.93
2019-04-29T18:50:16.616Z,5.47
2019-04-29T18:52:47.864Z,7.30
2019-04-29T18:55:17.972Z,7.80
2019-04-29T18:57:48.144Z,10.37
2019-04-29T19:00:19.945Z,8.13
2019-04-29T19:02:57.046Z,30.90
2019-04-29T19:05:32.391Z,15.60
2019-04-29T19:08:12.270Z,8.20
2019-04-29T19:10:37.385Z,7.50
2019-04-29T19:13:13.357Z,8.73
2019-04-29T19:15:50.784Z,9.00
2019-04-29T19:18:22.832Z,6.20
2019-04-29T19:20:56.986Z,6.17
2019-04-29T19:23:33.080Z,6.60
2019-04-29T19:26:14.095Z,11.10
2019-04-29T19:28:48.977Z,6.87
2019-04-29T19:32:01.003Z,7.57
2019-04-29T19:34:40.858Z,6.23
2019-04-29T19:37:06.551Z,6.53
2019-04-29T19:39:42.132Z,8.20
2019-04-29T19:42:28.684Z,5.27
2019-04-29T19:44:58.302Z,39.63
2019-04-29T19:47:29.994Z,10.47
2019-04-29T19:50:05.763Z,8.40
2019-04-29T19:52:40.506Z,5.80
2019-04-29T19:55:13.690Z,7.67
2019-04-29T19:57:51.271Z,6.37
2019-04-29T20:00:28.370Z,11.57
2019-04-29T20:02:59.528Z,6.77
2019-04-29T20:05:45.944Z,4.43
2019-04-29T20:08:37.377Z,7.20
2019-04-29T20:11:01.046Z,4.33
2019-04-29T20:14:01.356Z,7.23
2019-04-29T20:16:47.922Z,4.43
2019-04-29T20:19:36.548Z,4.33
2019-04-29T20:22:09.375Z,6.97
2019-04-29T20:24:40.119Z,3.77
2019-04-29T20:27:11.648Z,3.77
2019-04-29T20:29:42.254Z,5.47
2019-04-29T20:32:13.125Z,4.67
2019-04-29T20:34:46.139Z,3.23
2019-04-29T20:37:19.769Z,5.53
2019-04-29T20:39:52.140Z,9.03
2019-04-29T20:42:20.897Z,5.40
2019-04-29T20:44:51.376Z,5.67
2019-04-29T20:47:37.074Z,5.97
2019-04-29T20:49:57.224Z,7.97
2019-04-29T20:52:38.130Z,5.17
2019-04-29T20:55:11.148Z,3.63
2019-04-29T20:57:41.846Z,4.90
2019-04-29T21:00:14.802Z,5.73
2019-04-29T21:02:47.275Z,5.07
2019-04-29T21:05:23.167Z,5.87
2019-04-29T21:07:49.804Z,12.53
2019-04-29T21:10:21.027Z,9.67
2019-04-29T21:13:16.277Z,7.63
2019-04-29T21:15:55.600Z,13.10
2019-04-29T21:18:27.128Z,7.43
2019-04-29T21:20:59.523Z,17.60
2019-04-29T21:23:35.254Z,20.60
2019-04-29T21:26:05.315Z,18.53
2019-04-29T21:28:41.256Z,27.40
2019-04-29T21:31:11.691Z,5.03
2019-04-29T21:33:40.551Z,5.20
2019-04-29T21:36:34.902Z,4.37
2019-04-29T21:39:46.699Z,5.30
2019-04-29T21:42:47.152Z,5.93
2019-04-29T21:45:19.051Z,6.33
2019-04-29T21:47:53.465Z,7.30
2019-04-29T21:50:29.377Z,8.80
2019-04-29T21:53:02.152Z,5.87
2019-04-29T21:55:33.334Z,8.93
2019-04-29T21:58:03.862Z,6.40
2019-04-29T22:00:37.343Z,6.77
2019-04-29T22:03:09.673Z,6.03
2019-04-29T22:05:40.664Z,9.33
2019-04-29T22:08:11.271Z,7.67
2019-04-29T22:10:45.832Z,5.17
2019-04-29T22:13:16.488Z,7.10
2019-04-29T22:15:50.397Z,7.63
2019-04-29T22:18:21.066Z,7.87
2019-04-29T22:20:53.327Z,8.20
2019-04-29T22:23:25.312Z,7.87
2019-04-29T22:25:56.800Z,6.43
2019-04-29T22:28:28.876Z,6.57
2019-04-29T22:31:02.738Z,7.70
2019-04-29T22:33:38.604Z,9.17
2019-04-29T22:36:10.098Z,7.03
2019-04-29T22:38:51.977Z,8.80
2019-04-29T22:41:36.099Z,8.53
2019-04-29T22:44:07.885Z,6.87
2019-04-29T22:46:44.035Z,9.70
2019-04-29T22:49:19.829Z,8.63
2019-04-29T22:51:49.794Z,10.43
2019-04-29T22:54:22.158Z,12.07
2019-04-29T22:56:54.675Z,9.43
2019-04-29T22:59:35.339Z,10.73
2019-04-29T23:02:07.045Z,12.47
2019-04-29T23:04:47.245Z,11.23
2019-04-29T23:07:17.575Z,11.20
2019-04-29T23:09:50.977Z,11.83
2019-04-29T23:12:21.943Z,12.80
2019-04-29T23:14:52.701Z,14.07
2019-04-29T23:17:25.421Z,13.43
2019-04-29T23:20:01.480Z,16.27
2019-04-29T23:22:52.670Z,16.70
2019-04-29T23:25:55.680Z,16.73
2019-04-29T23:28:28.404Z,17.00
2019-04-29T23:31:00.748Z,16.50
2019-04-29T23:33:31.805Z,13.70
2019-04-29T23:36:02.562Z,16.07
2019-04-29T23:38:33.163Z,18.40
2019-04-29T23:41:05.129Z,14.57
2019-04-29T23:43:36.555Z,16.67
2019-04-29T23:46:07.442Z,19.20
2019-04-29T23:48:39.888Z,17.17
2019-04-29T23:51:10.860Z,19.63
2019-04-29T23:53:41.737Z,16.53
2019-04-29T23:56:12.580Z,20.90
2019-04-29T23:59:01.762Z,18.27
